createdAt,value
2022-10-22T00:01:51.601Z,12.40
2022-10-22T00:04:20.226Z,9.80
2022-10-22T00:06:48.715Z,6.00
2022-10-22T00:09:17.614Z,8.70
2022-10-22T00:11:46.333Z,19.00
2022-10-22T00:14:15.960Z,7.40
2022-10-22T00:16:44.562Z,7.50
2022-10-22T00:19:13.616Z,5.60
2022-10-22T00:21:42.137Z,5.90
2022-10-22T00:24:10.690Z,7.60
2022-10-22T00:26:40.649Z,7.10
2022-10-22T00:29:09.200Z,5.40
2022-10-22T00:31:37.821Z,5.40
2022-10-22T00:34:06.430Z,5.60
2022-10-22T00:36:34.823Z,7.50
2022-10-22T00:39:03.428Z,5.40
2022-10-22T00:41:32.018Z,3.80
2022-10-22T00:44:05.192Z,9.50
2022-10-22T00:46:33.704Z,7.10
2022-10-22T00:49:04.316Z,4.40
2022-10-22T00:51:35.532Z,7.90
2022-10-22T00:54:08.863Z,6.40
2022-10-22T00:56:38.538Z,5.80
2022-10-22T01:01:37.307Z,8.30
2022-10-22T01:04:06.073Z,7.90
2022-10-22T18:28:09.295Z,43.90
2022-10-22T18:30:41.155Z,35.80
2022-10-22T18:33:14.768Z,28.60
2022-10-22T18:35:46.611Z,27.70
2022-10-22T18:38:15.550Z,27.80
2022-10-22T18:40:46.847Z,31.40
2022-10-22T18:43:17.344Z,32.20
2022-10-22T18:45:50.519Z,28.70
2022-10-22T18:48:23.197Z,27.20
2022-10-22T19:04:33.403Z,28.50
2022-10-22T19:07:06.121Z,32.10
2022-10-22T19:12:03.805Z,22.80
2022-10-22T19:14:33.235Z,28.20
2022-10-22T19:17:02.195Z,24.80
2022-10-22T19:19:31.167Z,28.10
2022-10-22T19:22:00.026Z,33.40
2022-10-22T19:24:29.524Z,34.50
2022-10-22T19:26:58.503Z,25.20
2022-10-22T19:29:27.252Z,30.80
2022-10-22T19:31:56.025Z,37.70
2022-10-22T19:34:24.673Z,35.90
2022-10-22T19:36:53.579Z,27.60
2022-10-22T19:39:22.498Z,25.70
2022-10-22T19:41:51.311Z,28.10
2022-10-22T19:44:20.080Z,31.00
2022-10-22T19:46:49.282Z,26.90
2022-10-22T19:49:22.027Z,25.30
2022-10-22T19:51:51.940Z,26.80
2022-10-22T19:54:20.862Z,27.30
2022-10-22T19:56:50.264Z,30.40
2022-10-22T19:59:22.749Z,24.30
2022-10-22T20:01:51.690Z,29.00
2022-10-22T20:04:20.800Z,25.80
2022-10-22T20:06:52.337Z,26.20
2022-10-22T20:09:21.165Z,36.50
2022-10-22T20:11:49.918Z,30.40
2022-10-22T20:14:19.172Z,40.20
2022-10-22T20:16:48.010Z,37.50
2022-10-22T20:19:26.230Z,47.30
2022-10-22T20:21:55.317Z,42.60
2022-10-22T20:24:24.286Z,41.20
2022-10-22T20:26:56.226Z,43.40
2022-10-22T20:29:26.961Z,41.10
2022-10-22T20:31:55.678Z,39.30
2022-10-22T20:34:24.466Z,33.30
2022-10-22T20:36:53.250Z,30.90
2022-10-22T20:39:22.032Z,33.90
2022-10-22T20:41:53.068Z,35.30
2022-10-22T20:44:21.772Z,33.20
2022-10-22T20:46:52.108Z,37.10
2022-10-22T20:49:21.049Z,34.10
2022-10-22T20:51:50.033Z,34.80
2022-10-22T20:54:20.352Z,34.70
2022-10-22T20:56:49.080Z,35.10
2022-10-22T20:59:17.834Z,39.20
2022-10-22T21:01:54.413Z,30.10
2022-10-22T21:04:23.280Z,31.20
2022-10-22T21:06:52.651Z,33.80
2022-10-22T21:09:21.765Z,34.10
2022-10-22T21:11:51.664Z,36.20
2022-10-22T21:14:23.482Z,38.80
2022-10-22T21:16:53.310Z,41.40
2022-10-22T21:19:23.268Z,25.10
2022-10-22T21:21:52.078Z,31.20
2022-10-22T21:24:24.986Z,42.90
2022-10-22T21:26:54.361Z,32.00
2022-10-22T21:29:23.278Z,36.10
2022-10-22T21:31:53.238Z,30.80
2022-10-22T21:34:22.007Z,29.90
2022-10-22T21:36:50.698Z,28.20
2022-10-22T21:39:19.500Z,29.30
2022-10-22T21:41:48.251Z,25.90
2022-10-22T21:44:16.905Z,27.60
2022-10-22T21:46:45.658Z,24.70
2022-10-22T21:49:14.612Z,20.60
2022-10-22T21:51:44.327Z,24.80
